Terminal Aerodrome Forecast
Issued by NWS

Home | Current Version | Previous Version | Text Only | Print | Product List | Glossary On
Versions: 1 2 3 4 5 6 7 8 9 10 11 12 13 14 15 16 17 18 19 20 21 22 23 24 25 26 27 28 29 30 31 32 33 34 35
000
FTUS45 KLKN 211956 AAB
TAFEKO
TAF AMD
KEKO 211956Z 2120/2218 04004KT 3SM -SN BKN010 OVC025
     FM212100 04007KT P6SM FEW020 BKN040 OVC070
     FM220200 VRB03KT P6SM BKN050 BKN100 OVC200
     FM220600 VRB03KT P6SM FEW010 SCT050=

USA.gov is the U.S. government's official web portal to all federal, state and local government web resources and services.